Time;durP1;ratioP1;P1;durP2;ratioP2;P2;SDS_P1;SDS_P2;PMS_P1;PMS_P2;Temp;Humidity;BMP_temperature;BMP_pressure;BME280_temperature;BME280_humidity;BME280_pressure;Samples;Min_cycle;Max_cycle;Signal;HPM_P1;HPM_P2
2021/12/27 00:02:27;;;;;;;41.85;23.83;;;5.90;99.90;;;;;;6282497;22;20088;-80
2021/12/27 00:05:15;;;;;;;45.75;24.02;;;5.90;99.90;;;;;;6282406;22;20073;-81
2021/12/27 00:08:03;;;;;;;48.08;26.38;;;5.90;99.90;;;;;;6282878;22;20023;-81
2021/12/27 00:10:53;;;;;;;53.80;26.35;;;5.80;99.90;;;;;;6282433;22;20046;-84
2021/12/27 00:13:42;;;;;;;53.78;26.27;;;5.80;99.90;;;;;;6263711;22;20023;-83
2021/12/27 00:16:29;;;;;;;53.58;27.42;;;5.80;99.90;;;;;;6261290;22;20456;-83
2021/12/27 00:19:19;;;;;;;57.10;30.23;;;5.80;99.90;;;;;;6242299;22;20023;-84
2021/12/27 00:22:06;;;;;;;58.85;29.90;;;5.80;99.90;;;;;;6283261;22;20019;-82
2021/12/27 00:24:53;;;;;;;58.15;30.23;;;5.80;99.90;;;;;;6259954;22;20026;-82
2021/12/27 00:27:44;;;;;;;63.30;30.10;;;5.80;99.90;;;;;;6263594;22;20032;-82
2021/12/27 00:30:33;;;;;;;55.67;29.58;;;5.70;99.90;;;;;;6282143;22;20027;-82
2021/12/27 00:33:20;;;;;;;63.75;30.88;;;5.60;99.90;;;;;;6283252;22;20110;-82
2021/12/27 00:36:07;;;;;;;61.38;30.15;;;5.60;99.90;;;;;;6284517;22;20031;-82
2021/12/27 00:38:55;;;;;;;60.35;30.13;;;5.60;99.90;;;;;;6307201;22;20084;-83
2021/12/27 00:41:42;;;;;;;59.30;29.63;;;5.60;99.90;;;;;;6263592;22;20406;-83
2021/12/27 00:44:29;;;;;;;60.15;29.90;;;5.60;99.90;;;;;;6263527;22;20094;-81
2021/12/27 00:47:17;;;;;;;61.08;28.75;;;5.60;99.90;;;;;;6284980;22;20069;-82
2021/12/27 00:50:05;;;;;;;60.10;29.63;;;5.60;99.90;;;;;;6283966;22;20027;-84
2021/12/27 00:52:53;;;;;;;58.05;28.45;;;5.60;99.90;;;;;;6282049;22;20330;-80
2021/12/27 00:55:40;;;;;;;50.13;26.30;;;5.60;99.90;;;;;;6285866;22;20403;-81
2021/12/27 00:58:27;;;;;;;56.00;27.13;;;5.60;99.90;;;;;;6283535;22;20019;-82
2021/12/27 01:01:14;;;;;;;54.45;27.67;;;5.50;99.90;;;;;;6284893;22;20028;-82
2021/12/27 01:04:03;;;;;;;54.90;26.38;;;5.50;99.90;;;;;;6305099;22;20113;-80
2021/12/27 01:06:51;;;;;;;57.83;26.83;;;5.40;99.90;;;;;;6305340;22;20031;-83
2021/12/27 01:09:57;;;;;;;52.28;28.00;;;5.40;99.90;;;;;;6283621;22;20031;-81
2021/12/27 01:13:01;;;;;;;48.88;26.15;;;5.30;99.90;;;;;;6287453;22;20023;-82
2021/12/27 01:16:09;;;;;;;45.88;24.88;;;5.30;99.90;;;;;;6304113;22;20039;-82
2021/12/27 01:18:59;;;;;;;55.83;25.85;;;5.30;99.90;;;;;;6284934;22;20020;-81
2021/12/27 01:21:47;;;;;;;54.85;26.95;;;5.20;99.90;;;;;;6283578;22;20023;-80
2021/12/27 01:24:34;;;;;;;52.67;25.88;;;5.20;99.90;;;;;;6282909;22;20031;-81
2021/12/27 01:27:22;;;;;;;55.97;27.48;;;5.20;99.90;;;;;;6241284;22;20034;-84
2021/12/27 01:30:15;;;;;;;51.22;26.20;;;5.20;99.90;;;;;;6280833;22;20035;-82
2021/12/27 01:33:03;;;;;;;57.13;27.75;;;5.10;99.90;;;;;;6283445;22;20038;-82
2021/12/27 01:35:53;;;;;;;58.83;25.67;;;5.10;99.90;;;;;;6280601;22;20031;-84
2021/12/27 01:38:44;;;;;;;54.03;26.73;;;5.00;99.90;;;;;;6305904;22;20372;-84
2021/12/27 01:41:32;;;;;;;49.25;25.58;;;5.00;99.90;;;;;;6282752;22;20054;-83
2021/12/27 01:44:20;;;;;;;58.08;27.67;;;5.00;99.90;;;;;;6305270;22;20019;-82
2021/12/27 01:47:09;;;;;;;59.92;28.00;;;5.00;99.90;;;;;;6262943;22;20033;-81
2021/12/27 01:50:01;;;;;;;55.08;27.27;;;5.00;99.90;;;;;;6304882;22;20065;-82
2021/12/27 01:52:49;;;;;;;60.80;28.13;;;5.10;99.90;;;;;;6284037;22;20034;-84
2021/12/27 01:55:38;;;;;;;52.17;26.60;;;5.10;99.90;;;;;;6305865;22;20027;-83
2021/12/27 01:58:28;;;;;;;51.42;25.83;;;5.10;99.90;;;;;;6280900;22;20694;-83
2021/12/27 02:01:16;;;;;;;58.25;27.35;;;5.00;99.90;;;;;;6307073;22;20390;-84
2021/12/27 02:04:03;;;;;;;49.40;24.80;;;5.00;99.90;;;;;;6281328;22;20028;-84
2021/12/27 02:06:53;;;;;;;45.78;23.63;;;5.00;99.90;;;;;;6280521;22;20047;-84
2021/12/27 02:09:50;;;;;;;53.90;25.65;;;4.90;99.90;;;;;;6260951;22;20032;-83
2021/12/27 02:12:39;;;;;;;59.08;27.73;;;4.80;99.90;;;;;;6306304;22;20035;-82
2021/12/27 02:15:26;;;;;;;51.80;25.17;;;4.80;99.90;;;;;;6306202;22;20079;-81
2021/12/27 02:18:13;;;;;;;48.90;24.95;;;4.80;99.90;;;;;;6282941;22;20089;-82
2021/12/27 02:21:00;;;;;;;55.78;26.55;;;4.70;99.90;;;;;;6281326;22;20069;-84
2021/12/27 02:23:53;;;;;;;53.55;24.60;;;4.80;99.90;;;;;;6303051;22;20038;-81
2021/12/27 02:26:40;;;;;;;;;;;4.80;99.90;;;;;;6283309;22;20023;-82
2021/12/27 02:29:29;;;;;;;50.33;23.67;;;4.90;99.90;;;;;;6305622;22;20261;-81
2021/12/27 02:32:18;;;;;;;44.30;22.08;;;4.90;99.90;;;;;;6282097;22;20027;-82
2021/12/27 02:35:06;;;;;;;47.50;24.38;;;5.00;99.90;;;;;;6280753;22;20019;-84
2021/12/27 02:37:56;;;;;;;50.28;23.20;;;4.90;99.90;;;;;;6260149;22;20381;-84
2021/12/27 02:40:44;;;;;;;47.25;23.30;;;5.00;99.90;;;;;;6305566;22;20031;-83
2021/12/27 02:43:33;;;;;;;51.47;25.98;;;5.00;99.90;;;;;;6280925;22;20059;-82
2021/12/27 02:46:20;;;;;;;52.35;25.10;;;5.00;99.90;;;;;;6284495;22;20120;-83
2021/12/27 02:49:08;;;;;;;46.22;23.30;;;5.00;99.90;;;;;;6259598;22;20061;-83
2021/12/27 02:51:55;;;;;;;43.00;21.95;;;5.00;99.90;;;;;;6239974;22;20037;-83
2021/12/27 02:54:44;;;;;;;48.25;22.42;;;5.00;99.90;;;;;;6281563;22;20199;-84
2021/12/27 02:57:33;;;;;;;40.50;21.42;;;5.10;99.90;;;;;;6281466;22;20304;-81
2021/12/27 03:00:28;;;;;;;41.90;21.10;;;5.10;99.90;;;;;;6280792;22;20019;-84
2021/12/27 03:03:15;;;;;;;38.90;20.55;;;5.20;99.90;;;;;;6283532;22;20121;-84
2021/12/27 03:06:04;;;;;;;38.10;19.42;;;5.20;99.90;;;;;;6281426;22;20020;-85
2021/12/27 03:08:52;;;;;;;36.80;21.25;;;5.20;99.90;;;;;;6282622;22;20032;-83
2021/12/27 03:11:41;;;;;;;37.42;19.80;;;5.20;99.90;;;;;;6280901;22;20084;-82
2021/12/27 03:14:28;;;;;;;35.70;19.20;;;5.30;99.90;;;;;;6304048;22;20168;-84
2021/12/27 03:17:15;;;;;;;35.42;20.20;;;5.30;99.90;;;;;;6241068;22;20426;-83
2021/12/27 03:20:07;;;;;;;28.38;17.42;;;5.30;99.90;;;;;;6260888;22;20377;-83
2021/12/27 03:22:56;;;;;;;26.50;16.38;;;5.40;99.90;;;;;;6282154;22;20023;-84
2021/12/27 03:25:45;;;;;;;27.60;15.40;;;5.40;99.90;;;;;;6282172;22;20668;-82
2021/12/27 03:28:33;;;;;;;25.23;15.15;;;5.40;99.90;;;;;;6262956;22;20434;-80
2021/12/27 03:31:21;;;;;;;22.25;13.63;;;5.40;99.90;;;;;;6304548;22;20081;-81
2021/12/27 03:34:09;;;;;;;20.45;12.68;;;5.50;99.90;;;;;;6302612;22;20318;-84
2021/12/27 03:36:58;;;;;;;18.40;12.20;;;5.50;99.90;;;;;;6281019;22;20342;-84
2021/12/27 03:39:45;;;;;;;16.60;11.07;;;5.50;99.90;;;;;;6281513;22;20410;-81
2021/12/27 03:42:35;;;;;;;15.60;10.23;;;5.50;99.90;;;;;;6282993;22;20375;-83
2021/12/27 03:45:29;;;;;;;16.38;10.15;;;5.50;99.90;;;;;;6282289;22;20126;-83
2021/12/27 03:48:17;;;;;;;14.57;9.75;;;5.50;99.90;;;;;;6282321;22;20019;-82
2021/12/27 03:51:06;;;;;;;19.40;10.38;;;5.50;99.90;;;;;;6282386;22;20107;-82
2021/12/27 03:53:53;;;;;;;14.90;9.68;;;5.40;99.90;;;;;;6281515;22;20482;-80
2021/12/27 03:56:41;;;;;;;13.73;9.73;;;5.40;99.90;;;;;;6294385;22;20023;-80
2021/12/27 04:02:34;;;;;;;16.67;9.73;;;5.30;99.90;;;;;;6284290;22;20533;-80
2021/12/27 04:05:28;;;;;;;15.57;9.63;;;5.20;99.90;;;;;;6281851;22;20069;-81
2021/12/27 04:08:17;;;;;;;16.35;10.52;;;5.20;99.90;;;;;;6282003;22;20031;-82
2021/12/27 04:11:05;;;;;;;15.27;10.73;;;5.10;99.90;;;;;;6282174;22;20019;-82
2021/12/27 04:13:52;;;;;;;19.08;11.85;;;5.00;99.90;;;;;;6281812;22;20059;-80
2021/12/27 04:16:39;;;;;;;21.77;12.88;;;5.00;99.90;;;;;;6281988;22;20031;-81
2021/12/27 04:19:26;;;;;;;18.75;12.18;;;5.10;99.90;;;;;;6262536;22;20030;-81
2021/12/27 04:22:14;;;;;;;24.50;14.13;;;5.00;99.90;;;;;;6262020;22;20023;-80
2021/12/27 04:25:03;;;;;;;22.92;13.20;;;5.00;99.90;;;;;;6241440;22;20423;-83
2021/12/27 04:27:51;;;;;;;22.35;14.38;;;5.10;99.90;;;;;;6280876;22;20288;-83
2021/12/27 04:30:40;;;;;;;21.33;13.25;;;5.00;99.90;;;;;;6281813;22;20038;-83
2021/12/27 04:33:29;;;;;;;22.48;13.80;;;5.00;99.90;;;;;;6281345;22;20023;-82
2021/12/27 04:36:21;;;;;;;24.67;14.80;;;5.00;99.90;;;;;;6261576;22;20031;-83
2021/12/27 04:39:10;;;;;;;24.13;14.63;;;5.00;99.90;;;;;;6300278;22;20092;-83
2021/12/27 04:41:58;;;;;;;23.63;14.73;;;5.00;99.90;;;;;;6304693;22;20038;-83
2021/12/27 04:44:47;;;;;;;24.27;15.32;;;5.00;99.90;;;;;;6280142;22;20023;-83
2021/12/27 04:47:35;;;;;;;24.42;15.20;;;5.10;99.90;;;;;;6304049;22;20027;-82
2021/12/27 04:50:23;;;;;;;24.98;14.88;;;5.10;99.90;;;;;;6260062;22;20434;-83
2021/12/27 04:53:13;;;;;;;24.63;14.85;;;5.10;99.90;;;;;;6258751;22;20315;-83
2021/12/27 04:56:00;;;;;;;27.55;14.32;;;5.10;99.90;;;;;;6254476;22;20035;-83
2021/12/27 04:58:50;;;;;;;21.88;13.25;;;5.10;99.90;;;;;;6301273;22;20486;-83
2021/12/27 05:01:59;;;;;;;19.63;12.70;;;5.20;99.90;;;;;;6302623;22;20030;-83
2021/12/27 05:05:01;;;;;;;21.23;12.63;;;5.20;99.90;;;;;;6284975;22;20027;-84
2021/12/27 05:07:50;;;;;;;22.25;13.40;;;5.30;99.90;;;;;;6258840;22;20350;-83
2021/12/27 05:10:38;;;;;;;22.35;12.95;;;5.30;99.90;;;;;;6281848;22;20099;-83
2021/12/27 05:13:26;;;;;;;22.25;13.27;;;5.30;99.90;;;;;;6283937;22;20038;-83
2021/12/27 05:16:13;;;;;;;21.73;13.38;;;5.30;99.90;;;;;;6283849;22;20035;-82
2021/12/27 05:19:00;;;;;;;24.50;12.40;;;5.30;99.90;;;;;;6263161;22;20046;-82
2021/12/27 05:21:49;;;;;;;21.33;13.00;;;5.30;99.90;;;;;;6261394;22;20027;-80
2021/12/27 05:24:38;;;;;;;16.40;11.57;;;5.30;99.90;;;;;;6262523;22;20046;-83
2021/12/27 05:27:28;;;;;;;19.38;12.05;;;5.30;99.90;;;;;;6284994;22;20026;-84
2021/12/27 05:30:36;;;;;;;18.20;11.35;;;5.20;99.90;;;;;;6287340;22;20089;-82
2021/12/27 05:33:23;;;;;;;18.48;11.50;;;5.20;99.90;;;;;;6283586;22;20031;-83
2021/12/27 05:36:12;;;;;;;18.20;11.38;;;5.10;99.90;;;;;;6304626;22;20030;-83
2021/12/27 05:39:03;;;;;;;19.27;12.05;;;5.00;99.90;;;;;;6260992;22;20396;-83
2021/12/27 05:41:50;;;;;;;19.38;11.07;;;4.90;99.90;;;;;;6282336;22;20023;-83
2021/12/27 06:18:16;;;;;;;29.00;16.13;;;4.20;99.90;;;;;;6161387;22;20016;-84
2021/12/27 06:21:06;;;;;;;29.05;16.45;;;4.10;99.90;;;;;;6253611;22;20023;-85
2021/12/27 06:23:57;;;;;;;30.80;16.73;;;4.00;99.90;;;;;;6234958;22;20095;-84
2021/12/27 06:26:44;;;;;;;32.38;16.98;;;4.00;99.90;;;;;;6274020;22;20054;-86
2021/12/27 06:29:32;;;;;;;32.17;16.60;;;4.00;99.90;;;;;;6234520;22;20505;-86
2021/12/27 06:32:19;;;;;;;34.97;17.10;;;4.00;99.90;;;;;;6274026;22;20047;-87
2021/12/27 06:35:10;;;;;;;34.95;17.05;;;3.80;99.90;;;;;;6275230;22;20116;-85
2021/12/27 06:38:02;;;;;;;38.95;19.25;;;3.80;99.90;;;;;;6254398;22;20015;-87
2021/12/27 06:40:52;;;;;;;38.63;18.45;;;3.60;99.90;;;;;;6254871;22;20071;-87
2021/12/27 06:43:39;;;;;;;33.78;17.08;;;3.40;99.90;;;;;;6253386;22;20024;-88
2021/12/27 06:46:27;;;;;;;31.15;15.30;;;3.30;99.90;;;;;;6234133;22;20027;-84
2021/12/27 06:49:15;;;;;;;36.50;17.65;;;3.20;99.90;;;;;;6252613;22;20085;-84
2021/12/27 06:52:03;;;;;;;30.08;15.60;;;3.10;99.90;;;;;;6251435;22;20034;-84
2021/12/27 06:54:50;;;;;;;32.15;17.52;;;3.10;99.90;;;;;;6252039;22;20430;-80
2021/12/27 06:57:49;;;;;;;29.75;16.33;;;3.20;99.90;;;;;;6252446;22;20201;-81
2021/12/27 07:00:36;;;;;;;32.13;16.65;;;3.20;99.90;;;;;;6272590;22;20054;-82
2021/12/27 07:03:23;;;;;;;38.13;18.27;;;3.20;99.90;;;;;;6253181;22;20039;-82
2021/12/27 07:06:14;;;;;;;32.75;18.33;;;3.20;99.90;;;;;;6251702;22;20419;-82
2021/12/27 07:09:04;;;;;;;39.05;19.00;;;3.20;99.90;;;;;;6251717;22;20030;-82
2021/12/27 07:11:52;;;;;;;39.72;18.88;;;3.10;99.90;;;;;;6272359;22;20050;-82
2021/12/27 07:14:40;;;;;;;43.03;21.17;;;3.20;99.90;;;;;;6251445;22;20126;-80
2021/12/27 07:17:28;;;;;;;47.95;20.27;;;3.30;99.90;;;;;;6262068;22;20027;-81
2021/12/27 07:20:15;;;;;;;45.58;21.00;;;3.30;99.90;;;;;;6303861;22;20315;-81
2021/12/27 07:23:07;;;;;;;46.55;21.40;;;3.40;99.90;;;;;;6304080;22;20286;-83
2021/12/27 07:25:55;;;;;;;45.85;21.98;;;3.40;99.90;;;;;;6305694;22;20019;-82
2021/12/27 07:28:48;;;;;;;47.42;21.17;;;3.40;99.90;;;;;;6261342;22;20049;-81
2021/12/27 07:31:40;;;;;;;48.42;21.40;;;3.30;99.90;;;;;;6280985;22;20126;-79
2021/12/27 07:34:27;;;;;;;50.03;21.52;;;3.20;99.90;;;;;;6303096;22;20513;-81
2021/12/27 07:37:16;;;;;;;51.20;22.13;;;3.20;99.90;;;;;;6280701;22;20023;-83
2021/12/27 07:40:04;;;;;;;56.30;22.92;;;3.20;99.90;;;;;;6278435;22;20031;-81
2021/12/27 07:42:54;;;;;;;50.58;22.73;;;3.30;99.90;;;;;;6282085;22;20030;-82
2021/12/27 07:45:41;;;;;;;48.90;21.65;;;3.30;99.90;;;;;;6303786;22;20076;-83
2021/12/27 07:48:31;;;;;;;53.58;22.67;;;3.40;99.90;;;;;;6282361;22;20031;-81
2021/12/27 07:51:19;;;;;;;52.58;22.30;;;3.60;99.90;;;;;;6280929;22;20027;-82
2021/12/27 07:54:11;;;;;;;50.85;22.25;;;3.60;99.90;;;;;;6280631;22;20027;-81
2021/12/27 07:57:01;;;;;;;52.38;22.42;;;3.60;99.90;;;;;;6284082;22;20027;-84
2021/12/27 07:59:51;;;;;;;56.85;25.60;;;3.60;99.90;;;;;;6303782;22;20026;-82
2021/12/27 08:02:40;;;;;;;76.07;29.20;;;3.70;99.90;;;;;;6305516;22;20026;-82
2021/12/27 08:05:28;;;;;;;70.97;31.77;;;3.80;99.90;;;;;;6292588;22;20035;-83
2021/12/27 08:08:15;;;;;;;70.40;31.27;;;4.00;99.90;;;;;;6274967;22;20076;-83
2021/12/27 08:11:03;;;;;;;61.90;28.02;;;4.20;99.90;;;;;;6293796;22;20442;-81
2021/12/27 08:13:53;;;;;;;65.68;26.17;;;4.30;99.90;;;;;;6294645;22;20050;-81
2021/12/27 08:16:41;;;;;;;65.85;27.83;;;4.50;99.90;;;;;;6318428;22;20053;-79
2021/12/27 08:19:28;;;;;;;59.67;26.63;;;4.70;99.90;;;;;;6289652;22;20038;-81
2021/12/27 08:22:18;;;;;;;72.57;29.23;;;4.80;99.90;;;;;;6289640;22;20099;-82
2021/12/27 08:25:08;;;;;;;80.60;32.00;;;4.90;99.90;;;;;;6248277;22;20023;-80
2021/12/27 08:27:58;;;;;;;69.25;28.67;;;5.00;99.90;;;;;;6317695;22;20370;-82
2021/12/27 08:30:46;;;;;;;69.82;28.35;;;5.10;99.90;;;;;;6306232;22;20096;-82
2021/12/27 08:33:35;;;;;;;68.68;26.58;;;5.20;99.90;;;;;;6266281;22;20057;-81
2021/12/27 08:36:23;;;;;;;64.57;26.10;;;5.30;99.90;;;;;;6307997;22;20023;-83
2021/12/27 08:39:12;;;;;;;61.90;25.65;;;5.40;99.90;;;;;;6305764;22;20045;-83
2021/12/27 08:42:07;;;;;;;58.35;24.88;;;5.50;99.90;;;;;;6323653;22;20071;-83
2021/12/27 08:44:54;;;;;;;55.08;23.50;;;5.50;99.90;;;;;;6295591;22;20095;-83
2021/12/27 08:47:42;;;;;;;45.30;22.00;;;5.50;99.90;;;;;;6277062;22;20067;-81
2021/12/27 08:50:29;;;;;;;47.03;22.27;;;5.40;99.90;;;;;;6296423;22;20023;-82
2021/12/27 08:53:16;;;;;;;49.92;23.55;;;5.50;99.90;;;;;;6298550;22;20031;-83
2021/12/27 08:56:04;;;;;;;44.20;22.67;;;5.70;99.90;;;;;;6322177;22;20023;-82
2021/12/27 08:58:55;;;;;;;37.70;19.25;;;5.70;99.90;;;;;;6278500;22;20038;-81
2021/12/27 09:01:45;;;;;;;33.75;18.42;;;5.80;99.90;;;;;;6328348;22;20027;-82
2021/12/27 09:04:35;;;;;;;26.98;15.95;;;6.00;99.90;;;;;;6301490;22;20088;-84
2021/12/27 09:07:23;;;;;;;23.27;15.30;;;6.10;99.90;;;;;;6320836;22;20106;-84
2021/12/27 09:10:11;;;;;;;21.67;13.15;;;6.30;99.90;;;;;;6288646;22;20303;-82
2021/12/27 09:13:02;;;;;;;14.88;10.52;;;6.70;99.90;;;;;;6291631;22;20027;-83
2021/12/27 09:15:49;;;;;;;17.17;10.68;;;6.90;99.90;;;;;;6280091;22;20336;-82
2021/12/27 09:18:37;;;;;;;14.40;8.65;;;6.90;99.90;;;;;;6260306;22;20084;-83
2021/12/27 09:21:27;;;;;;;13.27;7.80;;;6.80;99.90;;;;;;6281771;22;20130;-83
2021/12/27 09:24:18;;;;;;;12.10;8.05;;;6.80;99.90;;;;;;6259926;22;20023;-83
2021/12/27 09:27:08;;;;;;;10.68;7.45;;;6.70;99.90;;;;;;6301255;22;20019;-82
2021/12/27 09:29:55;;;;;;;10.70;7.35;;;6.70;99.90;;;;;;6280026;22;20077;-83
2021/12/27 09:32:44;;;;;;;12.85;7.53;;;6.70;99.90;;;;;;6258841;22;20042;-83
2021/12/27 09:35:33;;;;;;;10.98;7.35;;;6.70;99.90;;;;;;6261937;22;20038;-83
2021/12/27 09:38:23;;;;;;;11.02;7.03;;;6.90;99.90;;;;;;6281538;22;20020;-81
2021/12/27 09:41:14;;;;;;;13.10;6.72;;;7.10;99.90;;;;;;6253363;22;20101;-82
2021/12/27 09:44:04;;;;;;;9.35;6.40;;;7.20;99.90;;;;;;6256156;22;20062;-82
2021/12/27 09:47:03;;;;;;;;;;;;;;;;;;;;;
2021/12/27 09:49:56;;;;;;;10.23;6.90;;;7.40;99.90;;;;;;6281392;22;20494;-82
2021/12/27 09:52:46;;;;;;;6.65;5.47;;;7.50;99.90;;;;;;6264009;22;20306;-82
2021/12/27 09:55:37;;;;;;;6.43;4.63;;;8.30;99.90;;;;;;6223761;22;20027;-84
2021/12/27 09:58:37;;;;;;;6.20;4.05;;;9.90;99.90;;;;;;6266575;22;20027;-84
2021/12/27 10:01:24;;;;;;;5.05;3.90;;;11.80;99.90;;;;;;6283036;22;20156;-84
2021/12/27 10:04:12;;;;;;;5.25;3.53;;;12.80;99.90;;;;;;6303211;22;20023;-82
2021/12/27 10:06:59;;;;;;;6.07;3.22;;;13.00;99.90;;;;;;6264407;22;20027;-83
2021/12/27 10:09:55;;;;;;;5.40;3.80;;;13.40;99.90;;;;;;6264041;22;20023;-82
2021/12/27 10:12:43;;;;;;;7.82;4.13;;;14.10;99.90;;;;;;6282875;22;20377;-85
2021/12/27 10:15:40;;;;;;;6.25;3.72;;;14.70;99.90;;;;;;6305022;22;20035;-85
2021/12/27 10:18:37;;;;;;;3.47;2.70;;;15.50;97.20;;;;;;6305549;22;20458;-85
2021/12/27 10:21:26;;;;;;;5.30;3.28;;;15.80;95.60;;;;;;6284172;22;20024;-82
2021/12/27 10:24:28;;;;;;;3.22;2.47;;;15.90;93.20;;;;;;6280711;22;20049;-86
2021/12/27 10:27:17;;;;;;;2.90;2.47;;;15.70;92.40;;;;;;6281814;22;20517;-84
2021/12/27 10:30:13;;;;;;;2.83;2.05;;;15.30;91.70;;;;;;6306764;22;20406;-83
2021/12/27 10:33:24;;;;;;;3.78;2.15;;;15.00;93.30;;;;;;6282698;22;20088;-83
2021/12/27 10:36:11;;;;;;;3.33;2.30;;;15.30;91.10;;;;;;6282630;22;20039;-83
2021/12/27 10:38:58;;;;;;;17.10;11.38;;;14.80;91.80;;;;;;6251242;22;20019;-83
2021/12/27 10:41:46;;;;;;;3.63;2.00;;;14.60;93.40;;;;;;6293108;22;20037;-83
2021/12/27 10:44:37;;;;;;;4.15;2.47;;;14.70;92.70;;;;;;6281804;22;20027;-83
2021/12/27 10:47:44;;;;;;;2.05;1.83;;;14.80;93.50;;;;;;6305792;22;20418;-82
2021/12/27 10:50:33;;;;;;;3.20;2.30;;;14.70;93.10;;;;;;6277897;22;20019;-86
2021/12/27 10:53:20;;;;;;;2.67;2.03;;;15.10;92.10;;;;;;6283177;22;20411;-84
2021/12/27 10:56:08;;;;;;;2.80;2.10;;;15.20;91.80;;;;;;6285678;22;20027;-84
2021/12/27 10:58:58;;;;;;;4.05;2.17;;;15.40;90.70;;;;;;6261523;22;20122;-84
2021/12/27 11:01:49;;;;;;;2.67;1.83;;;15.80;88.50;;;;;;6281794;22;20106;-86
2021/12/27 11:04:38;;;;;;;4.22;2.35;;;15.20;89.50;;;;;;6302944;22;20023;-87
2021/12/27 11:07:28;;;;;;;1.50;1.40;;;15.10;91.40;;;;;;6280766;22;20070;-85
2021/12/27 11:10:16;;;;;;;5.70;2.58;;;14.30;91.40;;;;;;6305708;22;20024;-84
2021/12/27 11:13:04;;;;;;;4.72;2.22;;;13.60;94.20;;;;;;6304324;22;20042;-83
2021/12/27 11:15:52;;;;;;;4.88;2.20;;;13.10;95.80;;;;;;6281556;22;20084;-82
2021/12/27 11:18:40;;;;;;;3.90;2.03;;;12.30;98.40;;;;;;6261931;22;20055;-85
2021/12/27 11:21:37;;;;;;;10.35;4.15;;;11.60;99.90;;;;;;6259779;22;20027;-84
2021/12/27 11:24:24;;;;;;;3.15;2.40;;;11.40;99.90;;;;;;6281278;22;20156;-85
2021/12/27 11:27:13;;;;;;;4.78;2.60;;;11.60;99.90;;;;;;6279724;22;20456;-85
2021/12/27 11:30:09;;;;;;;3.83;2.53;;;11.70;99.90;;;;;;6303908;22;20321;-82
2021/12/27 11:33:14;;;;;;;3.72;2.90;;;11.70;99.90;;;;;;6303904;22;20125;-83
2021/12/27 11:36:04;;;;;;;3.65;2.70;;;11.50;99.90;;;;;;6284719;22;20030;-83
2021/12/27 11:38:52;;;;;;;3.60;3.03;;;11.10;99.90;;;;;;6283632;22;20495;-83
2021/12/27 11:42:18;;;;;;;5.18;2.90;;;10.70;99.90;;;;;;6306667;22;20038;-81
2021/12/27 11:45:06;;;;;;;4.28;3.00;;;10.10;99.90;;;;;;6284467;22;20292;-82
2021/12/27 11:48:12;;;;;;;4.55;3.10;;;9.90;99.90;;;;;;6304315;22;20088;-83
2021/12/27 11:51:08;;;;;;;3.75;3.20;;;9.80;99.90;;;;;;6284986;22;20019;-82
2021/12/27 11:53:59;;;;;;;3.80;2.90;;;9.70;99.90;;;;;;6303602;22;20077;-85
2021/12/27 11:56:49;;;;;;;4.65;3.72;;;9.70;99.90;;;;;;6304721;22;20019;-81
2021/12/27 11:59:42;;;;;;;3.83;2.83;;;9.70;99.90;;;;;;6303076;22;20118;-85
2021/12/27 12:02:36;;;;;;;3.55;2.75;;;9.60;99.90;;;;;;6281886;22;20031;-83
2021/12/27 12:05:44;;;;;;;2.65;2.42;;;9.50;99.90;;;;;;6305519;22;20034;-80
2021/12/27 12:08:41;;;;;;;2.38;2.15;;;9.60;99.90;;;;;;6305703;22;20400;-84
2021/12/27 12:11:33;;;;;;;5.28;2.72;;;9.50;99.90;;;;;;6305182;22;20042;-82
2021/12/27 12:14:36;;;;;;;3.22;2.80;;;9.40;99.90;;;;;;6282604;22;20030;-83
2021/12/27 12:17:44;;;;;;;3.60;2.88;;;9.20;99.90;;;;;;6273939;22;20035;-82
2021/12/27 12:20:36;;;;;;;3.80;2.85;;;9.40;99.90;;;;;;6283185;22;20027;-84
2021/12/27 12:23:26;;;;;;;4.47;2.95;;;9.80;99.90;;;;;;6264011;22;20088;-82
2021/12/27 12:26:15;;;;;;;4.88;3.38;;;10.20;99.90;;;;;;6305141;22;20055;-81
2021/12/27 12:29:05;;;;;;;8.73;3.40;;;10.30;99.90;;;;;;6262792;22;20353;-83
2021/12/27 12:31:58;;;;;;;13.60;2.80;;;10.10;99.90;;;;;;6283915;22;20447;-81
2021/12/27 12:34:46;;;;;;;2.50;2.30;;;10.00;99.90;;;;;;6282643;22;20046;-82
2021/12/27 12:37:36;;;;;;;3.42;2.88;;;9.90;99.90;;;;;;6284027;22;20057;-81
2021/12/27 12:40:23;;;;;;;3.42;3.13;;;10.00;99.90;;;;;;6283251;22;20433;-81
2021/12/27 12:43:11;;;;;;;4.43;3.47;;;9.80;99.90;;;;;;6283117;22;20055;-82
2021/12/27 12:46:08;;;;;;;5.45;3.78;;;9.50;99.90;;;;;;6289212;22;20023;-82
2021/12/27 12:49:10;;;;;;;6.35;3.53;;;9.10;99.90;;;;;;6293805;22;20081;-81
2021/12/27 12:52:03;;;;;;;5.38;3.30;;;8.90;99.90;;;;;;6296072;22;20038;-82
2021/12/27 12:54:51;;;;;;;;;;;8.70;99.90;;;;;;6321890;22;20027;-81
2021/12/27 12:57:47;;;;;;;3.97;3.40;;;8.80;99.90;;;;;;6295903;22;19925;-81
2021/12/27 13:00:36;;;;;;;4.65;3.60;;;8.80;99.90;;;;;;6294856;22;20140;-81
2021/12/27 13:03:26;;;;;;;6.88;4.32;;;8.50;99.90;;;;;;6324602;22;20039;-83
2021/12/27 13:06:16;;;;;;;5.82;4.68;;;8.30;99.90;;;;;;6305001;22;20099;-82
2021/12/27 13:09:04;;;;;;;7.88;5.90;;;8.10;99.90;;;;;;6306228;22;20027;-83
2021/12/27 13:11:57;;;;;;;10.18;6.85;;;8.10;99.90;;;;;;6308767;22;20375;-82
2021/12/27 13:14:54;;;;;;;10.93;7.10;;;8.00;99.90;;;;;;6320764;22;20071;-83
2021/12/27 13:17:42;;;;;;;11.50;6.57;;;8.10;99.90;;;;;;6297433;22;20019;-83
2021/12/27 13:20:42;;;;;;;8.00;5.30;;;8.00;99.90;;;;;;6296090;22;20023;-83
2021/12/27 13:23:32;;;;;;;8.65;6.15;;;8.10;99.90;;;;;;6320764;22;20041;-82
2021/12/27 13:26:21;;;;;;;9.70;5.88;;;8.10;99.90;;;;;;6317283;22;20449;-81
2021/12/27 13:29:10;;;;;;;8.95;6.32;;;8.10;99.90;;;;;;6295578;22;20019;-82
2021/12/27 13:31:58;;;;;;;10.27;6.30;;;8.00;99.90;;;;;;6315557;22;20076;-82
2021/12/27 13:34:45;;;;;;;8.70;6.85;;;7.90;99.90;;;;;;6271260;22;20023;-84
2021/12/27 13:37:37;;;;;;;11.95;7.50;;;7.90;99.90;;;;;;6296462;22;20034;-79
2021/12/27 13:40:24;;;;;;;10.02;7.63;;;7.90;99.90;;;;;;6316264;22;20035;-81
2021/12/27 13:43:12;;;;;;;19.45;8.75;;;7.80;99.90;;;;;;6290097;22;20031;-81
2021/12/27 13:46:13;;;;;;;15.18;8.70;;;7.80;99.90;;;;;;6308312;22;20042;-82
2021/12/27 13:49:07;;;;;;;13.00;8.05;;;7.80;99.90;;;;;;6283004;22;20112;-81
2021/12/27 13:52:17;;;;;;;14.02;7.57;;;7.70;99.90;;;;;;6285694;22;20031;-83
2021/12/27 13:55:07;;;;;;;10.43;7.75;;;7.70;99.90;;;;;;6284205;22;20031;-83
2021/12/27 13:57:54;;;;;;;10.63;8.23;;;7.70;99.90;;;;;;6263558;22;20371;-83
2021/12/27 14:00:43;;;;;;;13.82;8.70;;;7.60;99.90;;;;;;6305264;22;20326;-83
2021/12/27 14:03:33;;;;;;;11.48;8.70;;;7.50;99.90;;;;;;6307852;22;20059;-81
2021/12/27 14:06:22;;;;;;;13.85;8.63;;;7.50;99.90;;;;;;6285297;22;20019;-82
2021/12/27 14:09:10;;;;;;;14.00;8.35;;;7.40;99.90;;;;;;6283955;22;20076;-83
2021/12/27 14:12:00;;;;;;;15.38;8.30;;;7.40;99.90;;;;;;6263408;22;20322;-83
2021/12/27 14:14:49;;;;;;;11.75;7.80;;;7.40;99.90;;;;;;6281941;22;20027;-84
2021/12/27 14:17:46;;;;;;;11.65;8.35;;;7.40;99.90;;;;;;6305131;22;20034;-84
2021/12/27 14:20:33;;;;;;;12.02;8.18;;;7.30;99.90;;;;;;6263345;22;20102;-83
2021/12/27 14:23:23;;;;;;;14.93;9.35;;;7.30;99.90;;;;;;6305502;22;20330;-81
2021/12/27 14:26:14;;;;;;;11.95;8.82;;;7.30;99.90;;;;;;6305357;22;20086;-85
2021/12/27 14:29:17;;;;;;;9.95;7.60;;;7.30;99.90;;;;;;6266552;22;20023;-84
2021/12/27 14:32:07;;;;;;;11.82;8.13;;;7.30;99.90;;;;;;6282648;22;20034;-83
2021/12/27 14:34:54;;;;;;;8.13;6.80;;;7.30;99.90;;;;;;6307637;22;20027;-84
2021/12/27 14:37:43;;;;;;;11.13;7.72;;;7.30;99.90;;;;;;6283679;22;20116;-83
2021/12/27 14:40:32;;;;;;;8.93;6.88;;;7.30;99.90;;;;;;6282788;22;20031;-83
2021/12/27 14:43:22;;;;;;;10.77;7.57;;;7.30;99.90;;;;;;6305965;22;20118;-83
2021/12/27 14:46:10;;;;;;;9.15;6.20;;;7.30;99.90;;;;;;6305075;22;20023;-86
2021/12/27 14:48:57;;;;;;;10.10;6.43;;;7.20;99.90;;;;;;6282724;22;20378;-88
2021/12/27 14:51:45;;;;;;;7.95;5.75;;;7.20;99.90;;;;;;6265018;22;20118;-89
2021/12/27 14:54:32;;;;;;;9.32;7.13;;;7.20;99.90;;;;;;6261062;22;20077;-84
2021/12/27 14:57:21;;;;;;;10.98;7.78;;;7.20;99.90;;;;;;6282285;22;20034;-84
2021/12/27 15:00:13;;;;;;;12.45;8.23;;;7.20;99.90;;;;;;6281993;22;20058;-85
2021/12/27 15:03:00;;;;;;;13.65;7.72;;;7.10;99.90;;;;;;6282630;22;20028;-82
2021/12/27 15:05:51;;;;;;;11.25;9.00;;;7.10;99.90;;;;;;6283734;22;20019;-84
2021/12/27 15:08:38;;;;;;;17.30;10.85;;;7.10;99.90;;;;;;6242351;22;20422;-86
2021/12/27 15:16:29;;;;;;;10.05;7.82;;;7.10;99.90;;;;;;6305612;22;20123;-82
2021/12/27 15:19:33;;;;;;;11.07;8.32;;;7.00;99.90;;;;;;6070259;23;20033;-85
2021/12/27 15:22:31;;;;;;;13.95;8.88;;;7.00;99.90;;;;;;6180393;23;20040;-83
2021/12/27 15:25:51;;;;;;;25.60;14.77;;;6.90;99.90;;;;;;6164657;23;20091;-84